»·PEaware :: SWA647 KPHX-KSAN

SWA647 :: KPHX-KSAN

FLIGHT INFORMATION

Flight Status: Arrived
Operator:
Southwest Airlines
More flights by this operator :: More flights under this callsign
Pilot: Maximilliano F. (23467)
Aircraft: BOEING 737-800
(B738)
More flights by this aircraft type
Origin: KPHX Phoenix Sky Harbor Intl
United States
Destination: KSAN San Diego Intl-Lindbergh
United States
More flights between these airports :: More routes between these airports
Route: FYRBD1 MOHAK J2 HOGGZ LUCKI1
File this flight plan on PilotEdge
Remarks: RMK / SIMBRIEF
Altitude:
(Current/Filed)
34,000ft
Speed:
(Current/Filed)
453kts
Departed: 24-Oct-19 07:19 PM
Arrived: 24-Oct-19 08:07 PM
Distance/Time
Traveled:
264nm/0:48
Distance/Time
To Go:
Arrived

Flight Plot

Page will automatically refresh every two minutes.

Flight plan parsing failed; only flown route is shown


Map Options




Map Legend


Flown Route
Filed Route
Departure Airport
Arrival Airport
Navaid (VOR, NDB)
Fix

Horizontal Profiles

Position Reports

Time Latitude Longitude Heading Altitude Ground
Speed
24-Oct-19 18:45 33.433698 -111.994861 89 1139ft 0kts
24-Oct-19 18:46 33.433698 -111.994861 89 1139ft 0kts
24-Oct-19 18:47 33.433698 -111.994861 89 1139ft 0kts
24-Oct-19 18:48 33.433698 -111.994861 89 1139ft 0kts
24-Oct-19 18:49 33.433698 -111.994861 89 1139ft 0kts
24-Oct-19 18:50 33.433698 -111.994861 89 1139ft 0kts
24-Oct-19 18:51 33.433698 -111.994861 89 1139ft 0kts
24-Oct-19 18:52 33.433698 -111.994861 89 1139ft 0kts
24-Oct-19 18:53 33.433698 -111.994861 89 1139ft 0kts
24-Oct-19 18:54 33.433698 -111.994861 89 1139ft 0kts
24-Oct-19 18:55 33.433698 -111.994861 89 1139ft 0kts
24-Oct-19 18:56 33.433698 -111.994861 89 1139ft 0kts
24-Oct-19 18:57 33.433698 -111.994861 89 1139ft 0kts
24-Oct-19 18:58 33.433698 -111.994861 89 1139ft 0kts
24-Oct-19 18:59 33.433698 -111.994861 89 1139ft 0kts
24-Oct-19 19:00 33.433698 -111.994861 89 1139ft 0kts
24-Oct-19 19:01 33.433698 -111.994861 89 1139ft 0kts
24-Oct-19 19:02 33.433698 -111.994861 89 1139ft 0kts
24-Oct-19 19:03 33.433697 -111.994894 90 1139ft 2kts
24-Oct-19 19:04 33.434105 -111.995313 182 1139ft 2kts
24-Oct-19 19:05 33.434302 -111.995319 176 1139ft 0kts
24-Oct-19 19:06 33.434302 -111.995319 176 1139ft 0kts
24-Oct-19 19:06 33.434302 -111.995319 176 1139ft 0kts
24-Oct-19 19:08 33.433462 -111.995307 179 1139ft 1kts
24-Oct-19 19:08 33.432843 -111.995660 257 1138ft 4kts
24-Oct-19 19:09 33.432825 -112.000447 270 1138ft 17kts
24-Oct-19 19:10 33.432873 -112.005422 270 1138ft 14kts
24-Oct-19 19:11 33.432875 -112.011332 270 1139ft 18kts
24-Oct-19 19:12 33.432884 -112.017132 270 1139ft 20kts
24-Oct-19 19:14 33.432884 -112.024197 269 1139ft 15kts
24-Oct-19 19:14 33.432106 -112.026978 180 1139ft 1kts
24-Oct-19 19:15 33.432106 -112.026978 180 1139ft 0kts
24-Oct-19 19:16 33.432106 -112.026978 180 1139ft 0kts
24-Oct-19 19:17 33.431269 -112.026953 163 1139ft 4kts
24-Oct-19 19:18 33.431045 -112.015229 89 1139ft 130kts
24-Oct-19 19:19 33.432631 -111.957906 85 3084ft 194kts
24-Oct-19 19:20 33.432151 -111.886721 102 5812ft 231kts
24-Oct-19 19:21 33.377520 -111.849145 198 8768ft 281kts
24-Oct-19 19:22 33.352204 -111.925143 288 11484ft 273kts
24-Oct-19 19:23 33.350683 -112.029897 251 13141ft 365kts
24-Oct-19 19:24 33.290997 -112.133515 237 16548ft 388kts
24-Oct-19 19:25 33.226164 -112.238936 238 19741ft 404kts
24-Oct-19 19:26 33.158617 -112.348484 237 22598ft 421kts
24-Oct-19 19:27 33.087726 -112.463116 237 25171ft 439kts
24-Oct-19 19:28 33.013841 -112.582206 237 27566ft 456kts
24-Oct-19 19:29 32.954439 -112.714436 259 29673ft 460kts
24-Oct-19 19:30 32.930803 -112.864693 266 31915ft 463kts
24-Oct-19 19:31 32.910422 -113.015618 266 34041ft 468kts
24-Oct-19 19:32 32.889306 -113.169793 266 34084ft 471kts
24-Oct-19 19:33 32.868152 -113.323086 265 34089ft 473kts
24-Oct-19 19:34 32.846595 -113.477667 265 34089ft 473kts
24-Oct-19 19:35 32.825003 -113.631168 265 34090ft 473kts
24-Oct-19 19:36 32.802942 -113.783944 264 34087ft 474kts
24-Oct-19 19:37 32.780889 -113.937775 264 34087ft 472kts
24-Oct-19 19:38 32.775255 -114.092330 277 34087ft 467kts
24-Oct-19 19:39 32.782045 -114.246100 277 34081ft 466kts
24-Oct-19 19:40 32.792878 -114.398900 288 34085ft 459kts
24-Oct-19 19:41 32.830488 -114.542513 293 34081ft 456kts
24-Oct-19 19:42 32.869104 -114.684789 288 34078ft 458kts
24-Oct-19 19:43 32.877065 -114.837752 272 34078ft 468kts
24-Oct-19 19:44 32.873491 -114.992991 272 33103ft 476kts
24-Oct-19 19:45 32.869827 -115.148198 272 30016ft 464kts
24-Oct-19 19:46 32.866187 -115.295152 272 27903ft 431kts
24-Oct-19 19:47 32.851504 -115.437581 264 25784ft 438kts
24-Oct-19 19:48 32.829288 -115.580473 262 23614ft 438kts
24-Oct-19 19:49 32.807099 -115.715481 262 21543ft 403kts
24-Oct-19 19:50 32.786218 -115.843094 264 19546ft 402kts
24-Oct-19 19:51 32.776060 -115.970377 268 17515ft 374kts
24-Oct-19 19:52 32.766813 -116.094034 267 15545ft 377kts
24-Oct-19 19:53 32.757693 -116.213645 267 13616ft 359kts
24-Oct-19 19:54 32.748382 -116.333424 266 12197ft 352kts
24-Oct-19 19:55 32.739681 -116.444922 267 10520ft 326kts
24-Oct-19 19:56 32.731201 -116.544081 266 9653ft 287kts
24-Oct-19 19:57 32.722045 -116.638255 267 8393ft 292kts
24-Oct-19 19:58 32.714333 -116.731241 267 7211ft 276kts
24-Oct-19 19:59 32.706144 -116.819855 257 6096ft 262kts
24-Oct-19 20:00 32.682255 -116.899752 252 4880ft 249kts
24-Oct-19 20:01 32.681495 -116.976763 289 3717ft 235kts
24-Oct-19 20:02 32.699070 -117.047955 289 2586ft 202kts
24-Oct-19 20:03 32.712784 -117.104004 286 1499ft 160kts
24-Oct-19 20:04 32.724784 -117.153494 287 504ft 155kts
24-Oct-19 20:05 32.734739 -117.194503 286 21ft 60kts
24-Oct-19 20:06 32.734444 -117.198076 99 20ft 5kts
24-Oct-19 20:07 32.733901 -117.195385 106 21ft 12kts
24-Oct-19 20:08 32.731981 -117.194952 194 21ft 6kts
24-Oct-19 20:09 32.731569 -117.195493 257 21ft 1kts

Navigation Log

Ident Type
Flight plan parsing failed, navigation log unavailable